Time;durP1;ratioP1;P1;durP2;ratioP2;P2;SDS_P1;SDS_P2;PMS_P1;PMS_P2;Temp;Humidity;BMP_temperature;BMP_pressure;BME280_temperature;BME280_humidity;BME280_pressure;Samples;Min_cycle;Max_cycle;Signal;HPM_P1;HPM_P2
2022/07/10 00:00:01;;;;;;;5.93;1.20;;;14.40;99.90;;;;;;5059396;28;20045;-76
2022/07/10 00:02:26;;;;;;;6.55;0.90;;;14.10;99.90;;;;;;5065720;28;20076;-75
2022/07/10 00:04:52;;;;;;;7.18;0.77;;;15.40;99.90;;;;;;5058807;28;20072;-75
2022/07/10 00:07:18;;;;;;;7.03;0.80;;;14.30;99.90;;;;;;5064068;28;20032;-76
2022/07/10 00:09:44;;;;;;;9.25;1.17;;;14.80;99.90;;;;;;5063158;28;20074;-74
2022/07/10 00:12:10;;;;;;;8.32;1.25;;;14.20;99.90;;;;;;5066475;28;20676;-75
2022/07/10 00:14:36;;;;;;;8.18;1.00;;;14.30;99.90;;;;;;5066985;28;20396;-74
2022/07/10 00:17:01;;;;;;;8.05;1.10;;;14.70;99.90;;;;;;5065394;28;20041;-75
2022/07/10 00:19:27;;;;;;;6.25;1.02;;;14.20;99.90;;;;;;5067234;28;20676;-75
2022/07/10 00:21:53;;;;;;;5.05;1.00;;;14.20;99.90;;;;;;5065837;28;20102;-76
2022/07/10 00:24:18;;;;;;;5.93;0.95;;;14.20;99.90;;;;;;5048847;28;20055;-76
2022/07/10 00:26:44;;;;;;;9.68;0.98;;;14.30;99.90;;;;;;5064934;28;20373;-75
2022/07/10 00:29:10;;;;;;;7.72;1.10;;;14.30;99.90;;;;;;5065813;28;20044;-76
2022/07/10 00:31:35;;;;;;;6.90;1.33;;;14.30;99.90;;;;;;5066461;28;20119;-76
2022/07/10 00:34:01;;;;;;;7.28;1.10;;;14.90;99.90;;;;;;5065092;28;20377;-78
2022/07/10 00:36:26;;;;;;;6.63;1.08;;;14.30;99.90;;;;;;5042998;28;20483;-76
2022/07/10 00:38:52;;;;;;;8.18;1.35;;;14.20;99.90;;;;;;5063632;28;20062;-78
2022/07/10 00:41:18;;;;;;;6.70;1.20;;;14.20;99.90;;;;;;5066839;28;20504;-77
2022/07/10 00:44:01;;;;;;;11.60;1.63;;;14.20;99.90;;;;;;5065322;28;20569;-76
2022/07/10 00:46:28;;;;;;;8.00;1.95;;;14.20;99.90;;;;;;5063941;28;20584;-75
2022/07/10 00:48:55;;;;;;;7.57;1.20;;;14.10;99.90;;;;;;5061497;28;20052;-76
2022/07/10 00:51:24;;;;;;;7.60;1.00;;;14.60;99.90;;;;;;5033029;28;20427;-76
2022/07/10 00:53:50;;;;;;;7.30;1.13;;;14.10;99.90;;;;;;5057247;28;20037;-75
2022/07/10 00:56:22;;;;;;;9.73;1.48;;;14.10;99.90;;;;;;5066763;28;20047;-75
2022/07/10 00:58:49;;;;;;;10.23;1.13;;;14.00;99.90;;;;;;5042729;28;20052;-74
2022/07/10 01:01:16;;;;;;;6.65;1.30;;;15.10;99.90;;;;;;5064588;28;20079;-74
2022/07/10 01:03:43;;;;;;;7.80;1.33;;;14.00;99.90;;;;;;5059561;28;20497;-74
2022/07/10 01:06:09;;;;;;;14.38;1.55;;;14.00;99.90;;;;;;5063093;28;20387;-75
2022/07/10 01:08:36;;;;;;;7.88;1.13;;;14.00;99.90;;;;;;5068132;28;20500;-75
2022/07/10 01:11:02;;;;;;;8.07;1.75;;;14.00;99.90;;;;;;5049075;28;20471;-75
2022/07/10 01:13:28;;;;;;;6.68;1.25;;;14.00;99.90;;;;;;5049226;28;20037;-75
2022/07/10 01:15:53;;;;;;;8.32;1.73;;;14.00;99.90;;;;;;5067979;28;20033;-75
2022/07/10 01:18:20;;;;;;;7.82;1.40;;;14.10;99.90;;;;;;5066214;28;20119;-75
2022/07/10 01:20:45;;;;;;;6.70;1.05;;;14.00;99.90;;;;;;5065821;28;20068;-75
2022/07/10 01:23:11;;;;;;;8.63;1.27;;;14.70;99.90;;;;;;5058998;28;20488;-75
2022/07/10 01:25:37;;;;;;;13.20;1.95;;;14.90;99.90;;;;;;5064671;28;20044;-75
2022/07/10 01:28:03;;;;;;;9.35;1.60;;;14.20;99.90;;;;;;5068294;28;20048;-75
2022/07/10 01:30:29;;;;;;;10.75;1.00;;;13.90;99.90;;;;;;5067929;28;20462;-75
2022/07/10 01:32:54;;;;;;;9.40;1.45;;;13.80;99.90;;;;;;5067062;28;20055;-75
2022/07/10 01:35:20;;;;;;;8.60;1.73;;;13.80;99.90;;;;;;5068300;28;20128;-74
2022/07/10 01:37:46;;;;;;;10.60;1.58;;;13.80;99.90;;;;;;5067601;28;20123;-74
2022/07/10 01:40:12;;;;;;;2.88;0.93;;;13.70;99.90;;;;;;5065830;28;20317;-73
2022/07/10 01:42:38;;;;;;;10.85;1.02;;;14.50;99.90;;;;;;5057424;28;20061;-73
2022/07/10 01:45:08;;;;;;;4.50;0.80;;;13.70;99.90;;;;;;5058664;28;20583;-73
2022/07/10 01:47:34;;;;;;;6.97;1.25;;;13.70;99.90;;;;;;5057623;28;20045;-74
2022/07/10 01:50:00;;;;;;;6.60;1.05;;;13.70;99.90;;;;;;5058805;28;20563;-75
2022/07/10 01:52:26;;;;;;;5.43;1.08;;;14.00;99.90;;;;;;5059786;28;20479;-74
2022/07/10 01:54:51;;;;;;;5.25;0.93;;;13.60;99.90;;;;;;5057641;28;20040;-74
2022/07/10 01:57:17;;;;;;;7.22;0.88;;;13.60;99.90;;;;;;5063848;28;20032;-74
2022/07/10 01:59:43;;;;;;;5.05;0.80;;;13.60;99.90;;;;;;5053211;28;20041;-74
2022/07/10 02:02:09;;;;;;;6.00;1.30;;;14.00;99.90;;;;;;5062347;28;20080;-74
2022/07/10 02:04:41;;;;;;;5.60;0.85;;;13.60;99.90;;;;;;5057122;28;20077;-74
2022/07/10 02:07:12;;;;;;;7.47;0.82;;;13.60;99.90;;;;;;5056176;28;20028;-74
2022/07/10 02:09:39;;;;;;;4.85;0.68;;;13.60;99.90;;;;;;5058024;28;20051;-73
2022/07/10 02:12:06;;;;;;;3.45;0.68;;;13.70;99.90;;;;;;5058340;28;20613;-74
2022/07/10 02:14:32;;;;;;;3.78;0.50;;;13.60;99.90;;;;;;5048407;28;20694;-74
2022/07/10 02:16:57;;;;;;;7.93;0.88;;;13.50;99.90;;;;;;5057383;28;20239;-73
2022/07/10 02:19:23;;;;;;;4.85;0.70;;;13.50;99.90;;;;;;5059158;28;20124;-74
2022/07/10 02:21:49;;;;;;;6.10;1.48;;;14.40;99.90;;;;;;5052911;28;20041;-74
2022/07/10 02:24:15;;;;;;;6.75;0.88;;;13.40;99.90;;;;;;5049314;28;20047;-74
2022/07/10 02:26:40;;;;;;;9.05;0.95;;;13.30;99.90;;;;;;5061055;28;20066;-73
2022/07/10 02:29:06;;;;;;;5.53;0.85;;;13.40;99.90;;;;;;5034266;28;20404;-74
2022/07/10 02:31:36;;;;;;;5.93;1.40;;;13.40;99.90;;;;;;5046836;28;20044;-74
2022/07/10 02:34:02;;;;;;;4.03;0.98;;;13.30;99.90;;;;;;5065618;28;20053;-74
2022/07/10 02:36:28;;;;;;;5.70;0.75;;;13.30;99.90;;;;;;5057087;28;20043;-74
2022/07/10 02:38:53;;;;;;;4.55;0.77;;;13.30;99.90;;;;;;5060966;28;20496;-74
2022/07/10 02:41:19;;;;;;;7.95;0.85;;;14.00;99.90;;;;;;5063774;28;20036;-74
2022/07/10 02:43:47;;;;;;;9.40;1.00;;;13.30;99.90;;;;;;5027741;28;20103;-74
2022/07/10 02:46:13;;;;;;;4.60;0.70;;;13.80;99.90;;;;;;5023629;28;20652;-74
2022/07/10 02:48:38;;;;;;;6.32;0.82;;;13.70;99.90;;;;;;5018368;28;20051;-74
2022/07/10 02:51:04;;;;;;;6.65;0.88;;;13.40;99.90;;;;;;5030510;28;20083;-74
2022/07/10 02:53:30;;;;;;;6.85;1.30;;;13.40;99.90;;;;;;5025044;28;20088;-73
2022/07/10 02:55:57;;;;;;;6.18;0.90;;;13.40;99.90;;;;;;5019401;28;20043;-74
2022/07/10 02:58:22;;;;;;;11.07;1.30;;;13.40;99.90;;;;;;5020050;28;20559;-74
2022/07/10 03:00:48;;;;;;;7.35;1.23;;;13.40;99.90;;;;;;5027779;28;20037;-74
2022/07/10 03:03:14;;;;;;;8.85;1.25;;;13.40;99.90;;;;;;5025984;28;20081;-74
2022/07/10 03:05:39;;;;;;;5.15;0.70;;;13.30;99.90;;;;;;5017541;28;20049;-73
2022/07/10 03:08:05;;;;;;;5.10;0.90;;;13.40;99.90;;;;;;5028969;28;20064;-73
2022/07/10 03:10:31;;;;;;;8.10;0.90;;;13.40;99.90;;;;;;5026252;28;20078;-73
2022/07/10 03:12:56;;;;;;;5.90;0.90;;;13.40;99.90;;;;;;5025582;28;20053;-74
2022/07/10 03:15:22;;;;;;;4.32;0.57;;;13.40;99.90;;;;;;5020779;28;20081;-74
2022/07/10 03:17:47;;;;;;;7.25;1.00;;;14.00;99.90;;;;;;5028897;28;20032;-75
2022/07/10 03:20:13;;;;;;;9.43;1.08;;;13.50;99.90;;;;;;5024868;28;20054;-74
2022/07/10 03:22:38;;;;;;;9.05;0.90;;;13.50;99.90;;;;;;5023269;28;20057;-74
2022/07/10 03:25:05;;;;;;;11.10;1.23;;;13.60;99.90;;;;;;5018006;28;20042;-73
2022/07/10 03:27:30;;;;;;;8.20;1.17;;;13.60;99.90;;;;;;5024674;28;20056;-74
2022/07/10 03:29:56;;;;;;;7.07;1.15;;;13.60;99.90;;;;;;5020226;28;20065;-74
2022/07/10 03:32:21;;;;;;;6.50;1.10;;;13.70;99.90;;;;;;5026668;28;20069;-74
2022/07/10 03:34:47;;;;;;;13.00;1.20;;;13.70;99.90;;;;;;5029407;28;20033;-74
2022/07/10 03:37:13;;;;;;;6.75;0.93;;;13.70;99.90;;;;;;5024519;28;20049;-74
2022/07/10 03:39:39;;;;;;;9.65;0.95;;;13.80;99.90;;;;;;5018316;28;20037;-74
2022/07/10 03:42:06;;;;;;;13.18;1.30;;;13.80;99.90;;;;;;5027068;28;20052;-74
2022/07/10 03:44:32;;;;;;;9.98;2.03;;;13.90;99.90;;;;;;5059832;28;20090;-74
2022/07/10 03:46:57;;;;;;;10.30;1.42;;;14.00;99.90;;;;;;5047523;28;20068;-75
2022/07/10 03:49:23;;;;;;;4.35;1.20;;;14.00;99.90;;;;;;5069669;28;20043;-75
2022/07/10 03:51:49;;;;;;;6.95;1.27;;;14.10;99.90;;;;;;5061147;28;20087;-75
2022/07/10 03:54:15;;;;;;;5.90;0.93;;;14.00;99.90;;;;;;5059758;28;20067;-75
2022/07/10 03:59:25;;;;;;;3.90;0.65;;;14.10;99.90;;;;;;5058426;28;20055;-75
2022/07/10 04:01:51;;;;;;;6.70;0.77;;;14.10;99.90;;;;;;5056615;28;20037;-75
2022/07/10 04:04:16;;;;;;;7.65;1.40;;;14.10;99.90;;;;;;5051611;28;20086;-75
2022/07/10 04:06:42;;;;;;;16.90;6.57;;;14.10;99.90;;;;;;5064052;28;20044;-74
2022/07/10 04:09:07;;;;;;;18.98;6.15;;;14.10;99.90;;;;;;5064238;28;20547;-74
2022/07/10 04:11:33;;;;;;;10.80;1.48;;;14.20;99.90;;;;;;5057757;28;20091;-75
2022/07/10 04:13:59;;;;;;;7.30;0.80;;;14.20;99.90;;;;;;5040327;28;20044;-75
2022/07/10 04:16:24;;;;;;;8.27;1.38;;;14.30;99.90;;;;;;5061633;28;20039;-75
2022/07/10 04:18:50;;;;;;;7.05;1.33;;;14.30;99.90;;;;;;5061323;28;20724;-76
2022/07/10 04:21:15;;;;;;;6.38;1.10;;;14.30;99.90;;;;;;5064126;28;20040;-76
2022/07/10 04:23:41;;;;;;;10.00;1.27;;;14.30;99.90;;;;;;5040337;28;20037;-73
2022/07/10 04:26:07;;;;;;;9.20;1.20;;;14.30;99.90;;;;;;5058743;28;20053;-74
2022/07/10 04:28:32;;;;;;;9.93;1.33;;;14.40;99.90;;;;;;5056720;28;20067;-74
2022/07/10 04:30:58;;;;;;;10.30;1.30;;;14.40;99.90;;;;;;5065179;28;20079;-74
2022/07/10 04:33:25;;;;;;;17.52;8.18;;;14.40;99.90;;;;;;5060502;28;20043;-74
2022/07/10 04:35:51;;;;;;;8.88;4.28;;;14.40;99.90;;;;;;5056867;28;20041;-75
2022/07/10 04:38:16;;;;;;;12.93;4.10;;;14.50;99.90;;;;;;5064656;28;20147;-75
2022/07/10 04:40:42;;;;;;;9.80;1.58;;;14.50;99.90;;;;;;5062651;28;20207;-74
2022/07/10 04:43:09;;;;;;;10.40;1.75;;;14.50;99.90;;;;;;5045371;28;20064;-75
2022/07/10 04:45:37;;;;;;;12.45;1.70;;;14.50;99.90;;;;;;5064092;28;20040;-74
2022/07/10 04:48:05;;;;;;;9.35;1.75;;;14.50;99.90;;;;;;5062262;28;20414;-74
2022/07/10 04:50:31;;;;;;;16.85;2.88;;;14.60;99.90;;;;;;5043718;28;20123;-75
2022/07/10 04:52:57;;;;;;;9.13;1.70;;;14.50;99.90;;;;;;5041097;28;20149;-75
2022/07/10 04:55:23;;;;;;;10.65;1.40;;;14.60;99.90;;;;;;5063443;28;20044;-75
2022/07/10 04:57:48;;;;;;;11.20;2.05;;;14.60;99.90;;;;;;5064386;28;20033;-75
2022/07/10 05:00:15;;;;;;;12.50;1.95;;;14.60;99.90;;;;;;5062924;28;20055;-75
2022/07/10 05:02:40;;;;;;;10.85;2.65;;;14.60;99.90;;;;;;5049301;28;20710;-75
2022/07/10 05:05:07;;;;;;;15.18;3.95;;;14.70;99.90;;;;;;5065038;28;20048;-75
2022/07/10 05:07:32;;;;;;;8.93;3.22;;;14.70;99.90;;;;;;5050290;28;20047;-75
2022/07/10 05:09:58;;;;;;;9.07;1.45;;;14.70;99.90;;;;;;5049598;28;20040;-75
2022/07/10 05:12:24;;;;;;;11.93;2.03;;;15.40;99.90;;;;;;5063054;28;20449;-76
2022/07/10 05:14:49;;;;;;;9.13;1.48;;;14.70;99.90;;;;;;5065735;28;20054;-74
2022/07/10 05:17:15;;;;;;;9.98;1.65;;;14.80;99.90;;;;;;5067294;28;20072;-75
2022/07/10 05:19:43;;;;;;;11.35;1.45;;;14.80;99.90;;;;;;5067823;28;20075;-75
2022/07/10 05:22:09;;;;;;;10.20;1.50;;;15.40;99.90;;;;;;5062138;28;20488;-75
2022/07/10 05:24:35;;;;;;;7.07;1.15;;;14.70;99.90;;;;;;5049269;28;20127;-75
2022/07/10 05:27:01;;;;;;;8.43;1.50;;;14.90;99.90;;;;;;5065904;28;20045;-75
2022/07/10 05:29:27;;;;;;;10.90;1.33;;;14.80;99.90;;;;;;5063430;28;20090;-75
2022/07/10 05:31:52;;;;;;;10.57;1.52;;;14.70;99.90;;;;;;5060302;28;20443;-75
2022/07/10 05:34:18;;;;;;;9.38;1.40;;;14.80;99.90;;;;;;5066875;28;20068;-75
2022/07/10 05:36:44;;;;;;;12.48;1.13;;;14.70;99.90;;;;;;5050042;28;20051;-75
2022/07/10 05:39:10;;;;;;;5.97;1.30;;;15.10;99.90;;;;;;5046845;28;20078;-75
2022/07/10 05:41:36;;;;;;;10.30;1.00;;;14.80;99.90;;;;;;5059172;28;20044;-75
2022/07/10 05:44:02;;;;;;;14.15;2.15;;;15.90;99.90;;;;;;5067501;28;20052;-75
2022/07/10 05:46:27;;;;;;;6.30;1.75;;;14.80;99.90;;;;;;5067044;28;20525;-75
2022/07/10 05:48:53;;;;;;;11.00;4.85;;;14.90;99.90;;;;;;5063278;28;20045;-74
2022/07/10 05:51:19;;;;;;;8.88;1.55;;;15.20;99.90;;;;;;5056406;28;20044;-74
2022/07/10 05:53:44;;;;;;;5.88;1.00;;;14.90;99.90;;;;;;5066804;28;20072;-74
2022/07/10 05:56:10;;;;;;;6.72;1.05;;;14.90;99.90;;;;;;5068430;28;20044;-74
2022/07/10 05:58:36;;;;;;;9.52;1.58;;;15.60;99.90;;;;;;5066299;28;20075;-75
2022/07/10 06:01:02;;;;;;;7.35;1.05;;;14.90;99.90;;;;;;5046879;28;20059;-74
2022/07/10 06:03:28;;;;;;;4.13;0.82;;;15.00;99.90;;;;;;5044992;28;20098;-75
2022/07/10 06:05:54;;;;;;;8.07;1.27;;;15.00;99.90;;;;;;5063683;28;21490;-74
2022/07/10 06:08:20;;;;;;;9.45;1.35;;;15.00;99.90;;;;;;5068541;28;20124;-74
2022/07/10 06:10:45;;;;;;;6.10;1.08;;;15.60;99.90;;;;;;5071034;28;20036;-74
2022/07/10 06:13:11;;;;;;;5.90;0.95;;;15.00;99.90;;;;;;5066463;28;20040;-74
2022/07/10 06:15:37;;;;;;;4.30;1.10;;;15.00;99.90;;;;;;5068658;28;20036;-74
2022/07/10 06:18:03;;;;;;;6.05;1.05;;;15.00;99.90;;;;;;5071045;28;20040;-74
2022/07/10 06:20:28;;;;;;;7.63;1.17;;;15.00;99.90;;;;;;5063931;28;20481;-76
2022/07/10 06:22:54;;;;;;;9.98;1.27;;;15.10;99.90;;;;;;5061823;28;20044;-75
2022/07/10 06:25:20;;;;;;;5.88;1.02;;;15.30;99.90;;;;;;5066691;28;20044;-74
2022/07/10 06:27:46;;;;;;;6.68;1.08;;;15.10;99.90;;;;;;5055512;28;20777;-74
2022/07/10 06:30:11;;;;;;;2.70;0.50;;;15.10;99.90;;;;;;5068078;28;20059;-74
2022/07/10 06:32:38;;;;;;;6.90;0.68;;;15.20;99.90;;;;;;5069178;28;20055;-74
2022/07/10 06:35:05;;;;;;;7.10;0.90;;;15.20;99.90;;;;;;5052749;28;20052;-74
2022/07/10 06:37:31;;;;;;;3.63;0.52;;;15.20;99.90;;;;;;5070754;28;20082;-74
2022/07/10 06:39:57;;;;;;;4.65;1.13;;;15.00;99.90;;;;;;5063546;28;20044;-75
2022/07/10 06:42:22;;;;;;;4.78;0.77;;;15.30;99.90;;;;;;5069811;28;20072;-74
2022/07/10 06:44:48;;;;;;;4.05;0.75;;;15.30;99.90;;;;;;5067845;28;20477;-73
2022/07/10 06:50:06;;;;;;;8.27;2.90;;;15.40;99.90;;;;;;5069154;28;20048;-74
2022/07/10 06:52:35;;;;;;;4.55;0.80;;;15.50;99.90;;;;;;5051026;28;20049;-74
2022/07/10 06:55:05;;;;;;;6.68;0.75;;;15.50;99.90;;;;;;5069212;28;20052;-74
2022/07/10 06:57:30;;;;;;;5.18;0.60;;;15.50;99.90;;;;;;5065276;28;20094;-75
2022/07/10 06:59:56;;;;;;;3.67;0.57;;;15.60;99.90;;;;;;5068344;28;20044;-75
2022/07/10 07:02:22;;;;;;;7.80;1.00;;;15.70;99.90;;;;;;5067263;28;20055;-75
2022/07/10 07:04:48;;;;;;;5.15;0.70;;;15.60;99.90;;;;;;5061908;28;20055;-76
2022/07/10 07:07:14;;;;;;;4.50;0.52;;;15.60;99.90;;;;;;5045387;28;20115;-73
2022/07/10 07:09:40;;;;;;;4.78;1.08;;;15.20;99.90;;;;;;5068839;28;20044;-73
2022/07/10 07:12:07;;;;;;;4.28;0.40;;;16.40;99.90;;;;;;5069296;28;20127;-76
2022/07/10 07:14:33;;;;;;;5.18;0.80;;;15.50;99.90;;;;;;5051725;28;20136;-75
2022/07/10 07:17:03;;;;;;;7.43;1.10;;;15.90;99.90;;;;;;5048828;28;20036;-76
2022/07/10 07:23:09;;;;;;;3.88;0.80;;;15.50;99.90;;;;;;5048260;28;20048;-75
2022/07/10 07:25:02;;;;;;;6.78;1.52;;;15.50;99.90;;;;;;5066055;28;20142;-74
2022/07/10 07:27:27;;;;;;;6.85;0.90;;;15.50;99.90;;;;;;5063698;28;20069;-72
2022/07/10 07:29:53;;;;;;;3.35;0.40;;;15.60;99.90;;;;;;5063736;28;20063;-73
2022/07/10 07:32:19;;;;;;;7.00;1.42;;;15.80;99.90;;;;;;5067394;28;20487;-74
2022/07/10 07:34:44;;;;;;;8.85;4.22;;;15.60;99.90;;;;;;5050426;28;20113;-74
2022/07/10 07:37:10;;;;;;;3.42;0.90;;;15.70;99.90;;;;;;5066139;28;20072;-73
2022/07/10 07:39:36;;;;;;;3.80;0.95;;;15.80;99.90;;;;;;4364939;28;10000656;-73
2022/07/10 07:42:02;;;;;;;4.72;0.55;;;15.80;99.90;;;;;;5050026;28;20719;-74
2022/07/10 07:44:29;;;;;;;3.45;0.40;;;15.80;99.90;;;;;;5065505;28;20048;-73
2022/07/10 07:46:55;;;;;;;3.80;0.75;;;15.90;99.90;;;;;;5066707;28;20044;-78
2022/07/10 07:49:21;;;;;;;3.55;0.40;;;15.90;99.90;;;;;;5067430;28;20071;-73
2022/07/10 07:51:47;;;;;;;6.63;0.93;;;16.90;99.90;;;;;;5066846;28;20048;-74
2022/07/10 07:54:13;;;;;;;2.78;0.55;;;16.30;99.90;;;;;;5067395;28;20094;-74
2022/07/10 07:56:38;;;;;;;4.00;0.82;;;17.00;99.90;;;;;;5045120;28;20072;-77
2022/07/10 07:59:04;;;;;;;2.80;0.80;;;15.90;99.90;;;;;;5063683;28;20044;-75
2022/07/10 08:01:29;;;;;;;4.82;1.77;;;15.90;99.90;;;;;;5064905;28;20124;-74
2022/07/10 08:03:55;;;;;;;4.75;0.80;;;15.90;99.90;;;;;;5061682;28;20054;-73
2022/07/10 08:06:21;;;;;;;3.00;0.50;;;15.90;99.90;;;;;;5067338;28;20427;-76
2022/07/10 08:08:48;;;;;;;3.28;0.43;;;15.90;99.90;;;;;;5067076;28;20052;-73
2022/07/10 08:11:14;;;;;;;3.72;0.50;;;15.90;99.90;;;;;;5066664;28;20082;-79
2022/07/10 08:13:39;;;;;;;5.85;0.70;;;15.90;99.90;;;;;;5067351;28;20443;-78
2022/07/10 08:16:05;;;;;;;2.97;0.52;;;16.30;99.90;;;;;;5063059;28;20094;-75
2022/07/10 08:18:31;;;;;;;4.78;1.00;;;15.90;99.90;;;;;;5066905;28;20048;-74
2022/07/10 08:20:56;;;;;;;7.13;0.63;;;15.90;99.90;;;;;;5045874;28;20091;-75
2022/07/10 08:23:22;;;;;;;5.47;0.70;;;15.90;99.90;;;;;;5059026;28;20106;-75
2022/07/10 08:25:48;;;;;;;6.30;0.70;;;16.00;99.90;;;;;;5064832;28;20042;-74
2022/07/10 08:28:13;;;;;;;6.05;0.57;;;16.00;99.90;;;;;;5066398;28;20048;-74
2022/07/10 08:30:39;;;;;;;6.70;1.35;;;16.30;99.90;;;;;;5061818;28;20035;-77
2022/07/10 08:33:05;;;;;;;5.38;1.00;;;15.90;99.90;;;;;;5066797;28;20441;-73
2022/07/10 08:35:31;;;;;;;9.52;1.10;;;15.90;99.90;;;;;;5066787;28;20102;-73
2022/07/10 08:37:57;;;;;;;5.57;0.70;;;16.90;99.90;;;;;;5066213;28;20047;-75
2022/07/10 08:40:23;;;;;;;7.63;1.05;;;16.40;99.90;;;;;;5060841;28;20053;-77
2022/07/10 08:42:49;;;;;;;4.20;0.73;;;16.30;99.90;;;;;;5060044;28;20045;-79
2022/07/10 08:45:14;;;;;;;4.70;0.88;;;16.30;99.90;;;;;;5061864;28;20037;-73
2022/07/10 08:47:42;;;;;;;2.28;1.25;;;15.70;99.90;;;;;;5053152;28;20107;-73
2022/07/10 08:50:21;;;;;;;7.93;0.70;;;16.10;99.90;;;;;;5064082;28;20090;-74
2022/07/10 08:53:08;;;;;;;4.60;0.70;;;15.60;99.90;;;;;;5028418;28;20058;-74
2022/07/10 08:55:36;;;;;;;5.43;0.98;;;15.50;99.90;;;;;;5059501;28;20049;-73
2022/07/10 08:58:04;;;;;;;4.25;0.85;;;15.50;99.90;;;;;;5063568;28;20094;-74
2022/07/10 09:00:30;;;;;;;5.32;1.30;;;15.40;99.90;;;;;;5059165;28;20552;-74
2022/07/10 09:02:56;;;;;;;5.03;1.20;;;15.40;99.90;;;;;;5062929;28;20049;-72
2022/07/10 09:05:23;;;;;;;5.93;2.65;;;15.30;99.90;;;;;;5060805;28;20034;-72
2022/07/10 09:07:56;;;;;;;4.03;0.70;;;15.30;99.90;;;;;;5058852;28;20525;-74
2022/07/10 09:10:25;;;;;;;4.90;1.20;;;15.30;99.90;;;;;;5044761;28;20510;-74
2022/07/10 09:12:56;;;;;;;5.55;1.10;;;16.20;99.90;;;;;;5062315;28;20108;-73
2022/07/10 09:15:29;;;;;;;6.60;1.17;;;15.20;99.90;;;;;;5062896;28;20028;-74
2022/07/10 09:18:00;;;;;;;4.88;1.02;;;15.30;99.90;;;;;;5063524;28;20056;-74
2022/07/10 09:20:39;;;;;;;2.38;0.90;;;15.30;99.90;;;;;;5056105;28;20037;-74
2022/07/10 09:23:17;;;;;;;5.32;1.23;;;15.30;99.90;;;;;;5056622;28;20044;-73
2022/07/10 09:25:43;;;;;;;5.55;1.13;;;15.40;99.90;;;;;;5057633;28;20041;-72
2022/07/10 09:28:09;;;;;;;4.15;0.82;;;15.40;99.90;;;;;;5059649;28;20041;-74
2022/07/10 09:30:37;;;;;;;3.00;0.90;;;15.50;99.90;;;;;;5061699;28;20478;-72
2022/07/10 09:33:26;;;;;;;9.45;1.77;;;16.20;99.90;;;;;;5060651;28;20051;-72
2022/07/10 09:36:10;;;;;;;7.72;1.30;;;15.50;99.90;;;;;;5059062;28;20043;-72
2022/07/10 09:38:39;;;;;;;8.82;1.70;;;15.60;99.90;;;;;;5043546;28;20056;-72
2022/07/10 09:41:21;;;;;;;5.55;1.17;;;15.50;99.90;;;;;;5064290;28;20484;-72
2022/07/10 09:44:01;;;;;;;7.07;0.93;;;15.50;99.90;;;;;;5065946;28;20079;-72
2022/07/10 09:46:32;;;;;;;6.45;1.55;;;15.50;99.90;;;;;;5065413;28;20037;-72
2022/07/10 09:49:01;;;;;;;4.50;1.08;;;15.50;99.90;;;;;;5066184;28;20052;-72
2022/07/10 09:51:33;;;;;;;4.35;1.35;;;15.50;99.90;;;;;;5064642;28;20475;-74
2022/07/10 09:54:01;;;;;;;7.70;1.85;;;15.90;99.90;;;;;;5044575;28;20055;-72
2022/07/10 09:56:30;;;;;;;6.40;1.45;;;16.10;99.90;;;;;;5067987;28;20415;-74
2022/07/10 09:59:00;;;;;;;6.43;1.20;;;15.50;99.90;;;;;;5063309;28;20087;-74
2022/07/10 10:01:28;;;;;;;4.20;1.08;;;15.60;99.90;;;;;;5062649;28;20090;-72
2022/07/10 10:03:58;;;;;;;7.15;1.33;;;15.90;99.90;;;;;;5065262;28;20668;-73
2022/07/10 10:06:28;;;;;;;7.57;1.25;;;15.60;99.90;;;;;;5064612;28;20519;-70
2022/07/10 10:09:05;;;;;;;3.10;1.10;;;15.60;99.90;;;;;;5063067;28;20047;-77
2022/07/10 10:11:33;;;;;;;5.65;1.33;;;15.60;99.90;;;;;;5067888;28;20047;-72
2022/07/10 10:14:00;;;;;;;6.28;1.30;;;15.60;99.90;;;;;;5065868;28;20065;-71
2022/07/10 10:16:28;;;;;;;6.53;1.30;;;15.60;99.90;;;;;;5067472;28;20041;-70
2022/07/10 10:21:39;;;;;;;5.57;1.63;;;15.60;99.90;;;;;;5066173;28;20072;-71
2022/07/10 10:24:06;;;;;;;5.78;1.55;;;15.80;99.90;;;;;;5067208;28;20072;-72
2022/07/10 10:26:32;;;;;;;6.80;2.00;;;15.70;99.90;;;;;;5066632;28;20057;-72
2022/07/10 10:29:01;;;;;;;9.38;1.67;;;15.80;99.90;;;;;;5076092;28;20048;-73
2022/07/10 10:31:28;;;;;;;7.60;1.55;;;15.90;99.90;;;;;;5070926;28;20490;-76
2022/07/10 10:33:55;;;;;;;7.55;1.55;;;15.90;99.90;;;;;;5065462;28;20439;-73
2022/07/10 10:36:45;;;;;;;7.00;1.55;;;16.00;99.90;;;;;;5071548;28;20037;-74
2022/07/10 10:39:13;;;;;;;6.03;1.77;;;16.10;99.90;;;;;;5048155;28;20049;-74
2022/07/10 10:41:51;;;;;;;6.28;1.15;;;17.30;99.90;;;;;;5045065;28;20083;-74
2022/07/10 10:44:16;;;;;;;8.57;1.73;;;16.20;99.90;;;;;;5062219;28;20070;-74
2022/07/10 10:46:56;;;;;;;7.68;2.00;;;16.30;99.90;;;;;;5058888;28;20048;-74
2022/07/10 10:49:24;;;;;;;10.52;2.03;;;16.60;99.90;;;;;;5061395;28;20052;-74
2022/07/10 10:51:59;;;;;;;9.48;4.85;;;16.40;99.90;;;;;;5054658;28;20064;-74
2022/07/10 10:54:27;;;;;;;9.15;1.45;;;17.30;99.90;;;;;;5049662;28;20107;-74
2022/07/10 10:57:12;;;;;;;5.18;1.90;;;17.50;99.90;;;;;;5035417;28;20036;-74
2022/07/10 10:59:51;;;;;;;7.82;1.13;;;16.60;99.90;;;;;;5070631;28;20458;-75
2022/07/10 11:02:32;;;;;;;3.55;1.23;;;17.60;99.90;;;;;;5058654;28;20101;-75
2022/07/10 11:05:18;;;;;;;6.07;1.40;;;16.60;99.90;;;;;;5064365;28;20051;-73
2022/07/10 11:07:58;;;;;;;7.10;0.85;;;16.70;99.90;;;;;;5053111;28;20119;-73
2022/07/10 11:10:41;;;;;;;11.02;1.40;;;16.90;99.90;;;;;;5070832;28;20115;-74
2022/07/10 11:13:16;;;;;;;2.70;0.82;;;16.60;99.90;;;;;;5055131;28;20044;-74
2022/07/10 11:15:44;;;;;;;5.10;2.05;;;16.70;99.90;;;;;;5067967;28;20044;-74
2022/07/10 11:18:14;;;;;;;11.48;4.78;;;17.30;99.90;;;;;;5070858;28;20056;-75
2022/07/10 11:20:44;;;;;;;4.50;1.10;;;16.70;99.90;;;;;;5070172;28;20543;-75
2022/07/10 11:23:31;;;;;;;4.97;0.98;;;16.60;99.90;;;;;;5069937;28;20044;-73
2022/07/10 11:26:09;;;;;;;4.07;1.10;;;16.60;99.90;;;;;;5068744;28;20044;-75
2022/07/10 11:28:49;;;;;;;5.22;1.20;;;17.10;99.90;;;;;;5069858;28;21341;-75
2022/07/10 11:31:16;;;;;;;8.43;3.58;;;16.50;99.90;;;;;;5057393;28;20098;-77
2022/07/10 11:33:44;;;;;;;7.78;1.65;;;17.30;99.90;;;;;;5051735;28;20086;-78
2022/07/10 11:36:15;;;;;;;7.65;0.80;;;17.20;99.90;;;;;;5069523;28;20048;-74
2022/07/10 11:38:42;;;;;;;6.35;1.40;;;16.50;99.90;;;;;;5055454;28;20048;-75
2022/07/10 11:41:19;;;;;;;3.47;0.90;;;16.50;99.90;;;;;;5061802;28;20474;-76
2022/07/10 11:43:56;;;;;;;3.97;1.02;;;16.40;99.90;;;;;;5059020;28;20060;-74
2022/07/10 11:46:24;;;;;;;3.85;1.17;;;16.40;99.90;;;;;;5069757;28;20395;-76
2022/07/10 11:48:52;;;;;;;5.07;1.30;;;16.40;99.90;;;;;;5069341;28;20418;-73
2022/07/10 11:51:33;;;;;;;4.10;1.02;;;16.70;99.90;;;;;;5051921;28;20051;-74
2022/07/10 11:54:06;;;;;;;6.30;1.02;;;17.00;99.90;;;;;;5050828;28;20051;-75
2022/07/10 11:56:34;;;;;;;8.23;4.75;;;16.20;99.90;;;;;;5051364;28;20083;-74
2022/07/10 11:59:00;;;;;;;7.32;2.05;;;16.20;99.90;;;;;;5069443;28;20044;-73
2022/07/10 12:01:28;;;;;;;5.78;1.50;;;16.10;99.90;;;;;;5069723;28;20488;-75
2022/07/10 12:04:05;;;;;;;8.73;1.83;;;16.00;99.90;;;;;;5067975;28;20398;-73
2022/07/10 12:06:34;;;;;;;6.00;1.70;;;15.90;99.90;;;;;;5051837;28;20040;-76
2022/07/10 12:09:12;;;;;;;7.13;1.80;;;15.90;99.90;;;;;;5069247;28;20094;-74
2022/07/10 12:11:39;;;;;;;5.25;1.65;;;15.80;99.90;;;;;;5068624;28;20123;-74
2022/07/10 12:14:19;;;;;;;7.82;1.27;;;15.80;99.90;;;;;;5069200;28;20052;-75
2022/07/10 12:16:52;;;;;;;6.90;1.58;;;15.80;99.90;;;;;;5069022;28;20045;-74
2022/07/10 12:19:21;;;;;;;7.30;1.23;;;15.80;99.90;;;;;;5068734;28;20415;-74
2022/07/10 12:21:47;;;;;;;11.48;2.08;;;15.90;99.90;;;;;;5067079;28;20115;-73
2022/07/10 12:24:16;;;;;;;9.40;1.83;;;16.00;99.90;;;;;;5065422;28;20047;-75
2022/07/10 12:26:43;;;;;;;4.55;1.10;;;16.00;99.90;;;;;;5068375;28;20416;-73
2022/07/10 12:29:29;;;;;;;8.35;1.55;;;16.00;99.90;;;;;;5069286;28;20097;-74
2022/07/10 12:32:00;;;;;;;8.00;1.55;;;16.10;99.90;;;;;;5068600;28;20388;-74
2022/07/10 12:34:42;;;;;;;5.28;1.30;;;16.10;99.90;;;;;;5068073;28;20059;-74
2022/07/10 12:37:12;;;;;;;6.28;1.35;;;16.10;99.90;;;;;;5057401;28;20091;-73
2022/07/10 12:39:45;;;;;;;5.65;1.70;;;16.10;99.90;;;;;;5053247;28;20101;-73
2022/07/10 12:42:11;;;;;;;6.25;1.40;;;15.90;99.90;;;;;;5062009;28;20083;-71
2022/07/10 12:44:41;;;;;;;5.60;2.42;;;16.50;99.90;;;;;;5064163;28;20098;-74
2022/07/10 12:47:09;;;;;;;6.25;1.45;;;16.10;99.90;;;;;;5054444;28;20028;-71
2022/07/10 12:49:55;;;;;;;7.63;1.83;;;17.20;99.90;;;;;;5049459;28;20055;-74
2022/07/10 12:52:25;;;;;;;9.35;1.30;;;16.10;99.90;;;;;;5057297;28;20044;-72
2022/07/10 12:55:15;;;;;;;5.95;1.50;;;16.10;99.90;;;;;;5057688;28;20049;-71
2022/07/10 12:57:58;;;;;;;5.28;1.10;;;16.20;99.90;;;;;;5056871;28;20047;-76
2022/07/10 13:00:32;;;;;;;1.83;0.77;;;16.20;99.90;;;;;;5065684;28;20045;-72